Time;durP1;ratioP1;P1;durP2;ratioP2;P2;SDS_P1;SDS_P2;PMS_P1;PMS_P2;Temp;Humidity;BMP_temperature;BMP_pressure;BME280_temperature;BME280_humidity;BME280_pressure;Samples;Min_cycle;Max_cycle;Signal;HPM_P1;HPM_P2
2021/12/01 00:02:15;;;;;;;3.90;1.70;;;9.90;99.90;;;;;;4994351;28;20450;-73
2021/12/01 00:04:42;;;;;;;1.43;1.33;;;9.90;99.90;;;;;;4995013;28;20463;-73
2021/12/01 00:07:09;;;;;;;1.40;1.30;;;9.90;99.90;;;;;;4994748;28;20436;-73
2021/12/01 00:09:36;;;;;;;2.80;1.70;;;10.00;99.90;;;;;;4994729;28;20444;-73
2021/12/01 00:12:03;;;;;;;1.17;1.07;;;10.00;99.90;;;;;;4994887;28;20444;-73
2021/12/01 00:14:30;;;;;;;2.30;1.60;;;10.00;99.90;;;;;;4994543;28;20459;-73
2021/12/01 00:16:58;;;;;;;5.77;1.23;;;10.10;99.90;;;;;;4994702;28;20448;-74
2021/12/01 00:19:25;;;;;;;2.43;1.23;;;10.00;99.90;;;;;;4994473;28;20479;-73
2021/12/01 00:21:52;;;;;;;2.30;1.20;;;10.10;99.90;;;;;;4994569;28;20449;-73
2021/12/01 00:24:19;;;;;;;2.93;1.30;;;10.10;99.90;;;;;;4994510;28;20448;-73
2021/12/01 00:26:46;;;;;;;1.60;1.03;;;10.10;99.90;;;;;;4994418;28;20938;-74
2021/12/01 00:29:13;;;;;;;1.43;1.30;;;10.10;99.90;;;;;;4994468;28;20545;-73
2021/12/01 00:31:41;;;;;;;2.10;1.53;;;10.10;99.90;;;;;;4994346;28;21021;-74
2021/12/01 00:34:10;;;;;;;2.37;1.80;;;10.10;99.90;;;;;;4994135;28;20506;-73
2021/12/01 00:36:36;;;;;;;1.73;1.30;;;10.10;99.90;;;;;;4994102;28;20448;-74
2021/12/01 00:39:05;;;;;;;2.10;1.20;;;10.10;99.90;;;;;;4994125;28;20456;-74
2021/12/01 00:41:33;;;;;;;1.13;1.07;;;10.10;99.90;;;;;;4994130;28;20465;-73
2021/12/01 00:44:00;;;;;;;1.33;1.23;;;10.10;99.90;;;;;;4994290;28;20448;-74
2021/12/01 00:46:38;;;;;;;1.87;1.20;;;10.10;99.90;;;;;;4994258;28;20447;-74
2021/12/01 00:49:05;;;;;;;0.87;0.87;;;10.10;99.90;;;;;;4994266;28;20440;-74
2021/12/01 00:51:33;;;;;;;1.83;1.03;;;10.10;99.90;;;;;;4994081;28;20464;-74
2021/12/01 00:54:00;;;;;;;2.43;1.40;;;10.10;99.90;;;;;;4994197;28;20459;-74
2021/12/01 00:56:27;;;;;;;2.37;1.30;;;10.10;99.90;;;;;;4994216;28;20525;-74
2021/12/01 00:58:54;;;;;;;3.60;1.60;;;10.10;99.90;;;;;;4994109;28;20459;-74
2021/12/01 01:01:21;;;;;;;1.33;1.23;;;10.10;99.90;;;;;;4994740;28;20495;-75
2021/12/01 01:03:49;;;;;;;1.40;1.30;;;10.10;99.90;;;;;;4993954;28;20459;-74
2021/12/01 01:06:15;;;;;;;1.50;1.40;;;10.10;99.90;;;;;;4994040;28;20467;-74
2021/12/01 01:08:45;;;;;;;2.00;1.77;;;10.00;99.90;;;;;;4993698;28;20456;-74
2021/12/01 01:16:43;;;;;;;3.73;1.63;;;10.10;99.90;;;;;;5000732;28;20439;-74
2021/12/01 01:19:11;;;;;;;1.50;1.30;;;10.10;99.90;;;;;;5000494;28;20464;-74
2021/12/01 01:21:41;;;;;;;2.37;1.83;;;10.10;99.90;;;;;;5000969;28;20978;-74
2021/12/01 01:24:09;;;;;;;1.40;1.30;;;10.10;99.90;;;;;;5000426;28;20440;-74
2021/12/01 01:26:37;;;;;;;1.67;1.50;;;10.10;99.90;;;;;;4999993;28;20458;-74
2021/12/01 01:29:05;;;;;;;2.00;1.33;;;10.10;99.90;;;;;;5000404;28;20459;-73
2021/12/01 01:31:32;;;;;;;1.70;1.17;;;10.10;99.90;;;;;;5000232;28;20539;-74
2021/12/01 01:33:59;;;;;;;1.77;1.33;;;10.10;99.90;;;;;;5000187;28;20444;-74
2021/12/01 01:36:27;;;;;;;0.90;0.90;;;10.10;99.90;;;;;;5000161;28;20443;-74
2021/12/01 01:38:54;;;;;;;1.20;1.10;;;10.00;99.90;;;;;;4999970;28;20962;-74
2021/12/01 01:41:23;;;;;;;2.30;1.20;;;10.10;99.90;;;;;;4999696;28;20487;-73
2021/12/01 01:43:52;;;;;;;1.20;1.10;;;10.10;99.90;;;;;;5000135;28;20448;-72
2021/12/01 01:46:19;;;;;;;2.00;1.10;;;10.00;99.90;;;;;;4999954;28;20942;-73
2021/12/01 01:48:48;;;;;;;1.70;1.60;;;10.00;99.90;;;;;;4999965;28;20438;-73
2021/12/01 01:51:17;;;;;;;2.00;1.03;;;10.00;99.90;;;;;;4999739;28;20981;-73
2021/12/01 01:53:44;;;;;;;2.03;1.70;;;10.00;99.90;;;;;;5000130;28;20444;-73
2021/12/01 01:56:11;;;;;;;1.10;1.07;;;10.00;99.90;;;;;;5000019;28;20474;-73
2021/12/01 01:58:40;;;;;;;4.20;1.90;;;10.00;99.90;;;;;;4999834;28;20448;-73
2021/12/01 02:01:09;;;;;;;1.70;1.27;;;10.00;99.90;;;;;;4999880;28;20491;-73
2021/12/01 02:03:40;;;;;;;1.93;1.73;;;9.90;99.90;;;;;;4999978;28;20997;-73
2021/12/01 02:06:08;;;;;;;1.87;1.70;;;9.90;99.90;;;;;;5000029;28;20445;-73
2021/12/01 02:08:36;;;;;;;2.63;2.43;;;9.90;99.90;;;;;;4999711;28;20451;-73
2021/12/01 02:11:06;;;;;;;2.20;2.10;;;10.00;99.90;;;;;;4999675;28;20848;-73
2021/12/01 02:13:34;;;;;;;2.20;2.00;;;9.90;99.90;;;;;;5000083;28;20443;-73
2021/12/01 02:16:02;;;;;;;2.43;2.23;;;10.00;99.90;;;;;;4999675;28;20456;-73
2021/12/01 02:18:29;;;;;;;2.80;2.50;;;10.00;99.90;;;;;;4999518;28;20455;-73
2021/12/01 02:21:06;;;;;;;2.47;2.27;;;10.00;99.90;;;;;;4999739;28;20487;-73
2021/12/01 02:23:34;;;;;;;2.97;2.77;;;10.00;99.90;;;;;;4997668;28;20436;-73
2021/12/01 02:26:02;;;;;;;3.80;3.50;;;9.90;99.90;;;;;;4996761;28;20448;-73
2021/12/01 02:28:30;;;;;;;3.90;3.60;;;9.90;99.90;;;;;;4997028;28;20452;-73
2021/12/01 02:30:57;;;;;;;4.60;4.20;;;10.00;99.90;;;;;;4996905;28;20476;-73
2021/12/01 02:33:23;;;;;;;4.67;3.87;;;10.00;99.90;;;;;;4996648;28;20498;-73
2021/12/01 02:35:50;;;;;;;3.90;3.50;;;9.90;99.90;;;;;;4996597;28;20467;-73
2021/12/01 02:38:19;;;;;;;5.00;4.53;;;10.00;99.90;;;;;;4996495;28;20448;-73
2021/12/01 02:40:46;;;;;;;4.63;3.80;;;10.00;99.90;;;;;;4996081;28;20487;-73
2021/12/01 02:43:13;;;;;;;4.70;4.27;;;10.00;99.90;;;;;;4996637;28;20452;-73
2021/12/01 02:45:40;;;;;;;4.40;4.00;;;10.00;99.90;;;;;;4996467;28;20455;-73
2021/12/01 02:48:07;;;;;;;6.80;4.23;;;9.90;99.90;;;;;;4996535;28;20551;-73
2021/12/01 02:50:34;;;;;;;5.37;4.87;;;9.90;99.90;;;;;;4996089;28;20917;-72
2021/12/01 02:53:01;;;;;;;5.20;4.27;;;9.90;99.90;;;;;;4996395;28;20444;-73
2021/12/01 02:55:32;;;;;;;5.20;4.73;;;9.90;99.90;;;;;;4996211;28;20449;-72
2021/12/01 02:57:59;;;;;;;5.00;4.50;;;10.00;99.90;;;;;;4996302;28;20432;-72
2021/12/01 03:00:27;;;;;;;5.47;5.00;;;10.00;99.90;;;;;;4995712;28;20997;-72
2021/12/01 03:02:56;;;;;;;5.97;4.93;;;10.00;99.90;;;;;;4995861;28;20948;-72
2021/12/01 03:05:23;;;;;;;4.57;4.17;;;10.00;99.90;;;;;;4995699;28;20444;-72
2021/12/01 03:07:50;;;;;;;6.70;4.90;;;10.00;99.90;;;;;;4995938;28;20448;-72
2021/12/01 03:10:17;;;;;;;5.70;5.13;;;10.00;99.90;;;;;;4995599;28;20498;-72
2021/12/01 03:12:46;;;;;;;6.53;5.93;;;10.00;99.90;;;;;;4996010;28;20815;-73
2021/12/01 03:15:16;;;;;;;6.17;5.57;;;10.00;99.90;;;;;;4995496;28;20807;-72
2021/12/01 03:17:43;;;;;;;6.30;5.70;;;9.90;99.90;;;;;;4995792;28;20480;-73
2021/12/01 03:20:12;;;;;;;5.83;5.33;;;10.00;99.90;;;;;;4995903;28;20854;-73
2021/12/01 03:22:38;;;;;;;6.67;5.97;;;9.90;99.90;;;;;;4996202;28;20459;-72
2021/12/01 03:25:10;;;;;;;6.37;5.73;;;9.90;99.90;;;;;;4995754;28;20455;-72
2021/12/01 03:27:37;;;;;;;5.83;5.33;;;9.90;99.90;;;;;;4995785;28;20412;-73
2021/12/01 03:30:07;;;;;;;6.80;5.73;;;9.90;99.90;;;;;;4995796;28;20476;-72
2021/12/01 03:32:34;;;;;;;7.00;6.30;;;9.90;99.90;;;;;;4995431;28;20455;-73
2021/12/01 03:35:02;;;;;;;9.00;6.73;;;9.90;99.90;;;;;;4995535;28;20424;-72
2021/12/01 03:37:29;;;;;;;7.13;6.53;;;9.80;99.90;;;;;;4995554;28;20455;-72
2021/12/01 03:39:58;;;;;;;7.53;6.80;;;9.80;99.90;;;;;;4995388;28;20475;-73
2021/12/01 03:42:25;;;;;;;7.70;5.90;;;9.80;99.90;;;;;;4995045;28;20943;-72
2021/12/01 03:44:52;;;;;;;7.17;6.37;;;9.80;99.90;;;;;;4995372;28;20463;-72
2021/12/01 03:47:20;;;;;;;6.33;5.73;;;9.80;99.90;;;;;;4995031;28;20456;-72
2021/12/01 03:49:47;;;;;;;8.00;6.20;;;9.80;99.90;;;;;;4995253;28;20464;-72
2021/12/01 03:52:16;;;;;;;6.60;6.00;;;9.80;99.90;;;;;;4995114;28;20449;-72
2021/12/01 03:54:43;;;;;;;5.73;5.13;;;9.80;99.90;;;;;;4995142;28;20515;-72
2021/12/01 03:57:10;;;;;;;6.90;6.20;;;9.80;99.90;;;;;;4995158;28;20448;-72
2021/12/01 03:59:37;;;;;;;7.23;6.53;;;9.80;99.90;;;;;;4995104;28;20448;-73
2021/12/01 04:02:05;;;;;;;5.03;4.63;;;9.70;99.90;;;;;;4995215;28;20492;-72
2021/12/01 04:04:33;;;;;;;6.77;6.07;;;9.70;99.90;;;;;;4994646;28;20950;-72
2021/12/01 04:07:00;;;;;;;5.37;4.90;;;9.60;99.90;;;;;;4994480;28;20942;-72
2021/12/01 04:09:27;;;;;;;6.00;5.10;;;9.60;99.90;;;;;;4994794;28;20475;-72
2021/12/01 04:11:54;;;;;;;5.83;5.23;;;9.60;99.90;;;;;;4994641;28;20487;-72
2021/12/01 04:14:22;;;;;;;5.83;5.23;;;9.60;99.90;;;;;;4994812;28;20468;-72
2021/12/01 04:16:49;;;;;;;5.90;5.40;;;9.60;99.90;;;;;;4994744;28;20456;-72
2021/12/01 04:19:16;;;;;;;6.47;5.30;;;9.60;99.90;;;;;;4994678;28;20455;-72
2021/12/01 04:21:45;;;;;;;5.93;4.80;;;9.60;99.90;;;;;;4994172;28;21053;-71
2021/12/01 04:24:12;;;;;;;7.33;4.80;;;9.60;99.90;;;;;;4994627;28;20452;-72
2021/12/01 04:26:39;;;;;;;6.00;5.50;;;9.50;99.90;;;;;;4994530;28;20448;-72
2021/12/01 04:29:07;;;;;;;5.53;5.03;;;9.50;99.90;;;;;;4994279;28;20459;-72
2021/12/01 04:31:37;;;;;;;7.27;5.00;;;9.50;99.90;;;;;;4994355;28;20464;-72
2021/12/01 04:34:04;;;;;;;5.27;4.77;;;9.60;99.90;;;;;;4994406;28;20523;-72
2021/12/01 04:36:33;;;;;;;4.80;4.37;;;9.50;99.90;;;;;;4994328;28;20542;-72
2021/12/01 04:39:04;;;;;;;5.43;4.60;;;9.60;99.90;;;;;;4994004;28;20938;-71
2021/12/01 04:41:36;;;;;;;5.47;4.97;;;9.50;99.90;;;;;;4993890;28;20904;-72
2021/12/01 04:44:08;;;;;;;3.87;3.50;;;9.50;99.90;;;;;;4994301;28;20520;-72
2021/12/01 04:46:40;;;;;;;5.57;4.80;;;9.60;99.90;;;;;;4993821;28;20445;-72
2021/12/01 04:49:07;;;;;;;7.90;4.40;;;9.60;99.90;;;;;;4993940;28;20439;-72
2021/12/01 04:51:34;;;;;;;4.73;3.97;;;9.50;99.90;;;;;;4994058;28;20474;-72
2021/12/01 04:54:02;;;;;;;3.80;3.50;;;9.50;99.90;;;;;;4994080;28;20494;-72
2021/12/01 04:56:29;;;;;;;6.80;4.80;;;9.50;99.90;;;;;;4994177;28;20452;-72
2021/12/01 04:58:56;;;;;;;4.80;3.70;;;9.50;99.90;;;;;;4994112;28;20942;-72
2021/12/01 05:01:23;;;;;;;4.33;3.10;;;9.60;99.90;;;;;;4993965;28;20495;-72
2021/12/01 05:03:50;;;;;;;10.67;3.13;;;9.60;99.90;;;;;;4993861;28;20949;-72
2021/12/01 05:06:17;;;;;;;3.00;2.80;;;9.60;99.90;;;;;;4994052;28;20447;-72
2021/12/01 05:08:45;;;;;;;3.00;2.70;;;9.60;99.90;;;;;;4993996;28;20455;-72
2021/12/01 05:11:13;;;;;;;5.00;2.60;;;9.60;99.90;;;;;;4993516;28;20480;-72
2021/12/01 05:13:40;;;;;;;2.50;2.30;;;9.60;99.90;;;;;;4994038;28;20794;-72
2021/12/01 05:16:07;;;;;;;2.83;2.63;;;9.60;99.90;;;;;;4993920;28;20503;-72
2021/12/01 05:18:33;;;;;;;3.53;2.60;;;9.60;99.90;;;;;;4993846;28;20456;-72
2021/12/01 05:21:00;;;;;;;4.30;2.53;;;9.60;99.90;;;;;;4993815;28;20492;-72
2021/12/01 05:23:27;;;;;;;3.67;1.97;;;9.60;99.90;;;;;;4993963;28;20448;-72
2021/12/01 05:25:54;;;;;;;2.97;2.53;;;9.60;99.90;;;;;;4993710;28;20474;-72
2021/12/01 05:28:22;;;;;;;2.80;2.27;;;9.60;99.90;;;;;;4993489;28;20436;-72
2021/12/01 05:30:49;;;;;;;2.80;2.57;;;9.60;99.90;;;;;;4993624;28;20460;-72
2021/12/01 05:33:16;;;;;;;2.67;2.47;;;9.60;99.90;;;;;;4993453;28;20452;-72
2021/12/01 05:35:46;;;;;;;2.13;1.93;;;9.60;99.90;;;;;;4993786;28;20446;-72
2021/12/01 05:38:13;;;;;;;5.03;1.80;;;9.60;99.90;;;;;;4993534;28;20463;-73
2021/12/01 05:40:40;;;;;;;2.40;2.20;;;9.60;99.90;;;;;;4993391;28;20472;-74
2021/12/01 05:43:07;;;;;;;1.80;1.60;;;9.60;99.90;;;;;;4993963;28;20478;-73
2021/12/01 05:45:36;;;;;;;4.60;1.63;;;9.60;99.90;;;;;;4993473;28;20919;-74
2021/12/01 05:48:03;;;;;;;2.07;1.87;;;9.50;99.90;;;;;;4993695;28;20458;-74
2021/12/01 05:50:30;;;;;;;2.10;1.90;;;9.60;99.90;;;;;;4993285;28;20476;-74
2021/12/01 05:52:57;;;;;;;2.70;1.60;;;9.60;99.90;;;;;;4993755;28;20535;-74
2021/12/01 05:55:23;;;;;;;2.07;1.90;;;9.60;99.90;;;;;;4993717;28;20435;-74
2021/12/01 05:57:50;;;;;;;2.00;1.80;;;9.60;99.90;;;;;;4993698;28;20535;-74
2021/12/01 06:00:17;;;;;;;1.90;1.80;;;9.60;99.90;;;;;;4996531;28;20483;-74
2021/12/01 06:02:49;;;;;;;2.83;1.63;;;9.60;99.90;;;;;;4997297;28;20484;-74
2021/12/01 06:05:16;;;;;;;2.70;1.87;;;9.60;99.90;;;;;;4997242;28;20451;-74
2021/12/01 06:07:43;;;;;;;2.07;1.50;;;9.70;99.90;;;;;;4997246;28;20459;-74
2021/12/01 06:10:10;;;;;;;2.07;1.47;;;9.70;99.90;;;;;;4997221;28;20492;-74
2021/12/01 06:12:40;;;;;;;3.50;1.70;;;9.60;99.90;;;;;;4996717;28;20452;-74
2021/12/01 06:15:08;;;;;;;1.63;1.53;;;9.60;99.90;;;;;;4997097;28;20944;-74
2021/12/01 06:17:36;;;;;;;2.37;1.57;;;9.70;99.90;;;;;;4997118;28;20527;-76
2021/12/01 06:20:06;;;;;;;2.53;1.87;;;9.70;99.90;;;;;;4996926;28;20479;-73
2021/12/01 06:22:33;;;;;;;3.17;1.57;;;9.70;99.90;;;;;;4996979;28;20502;-73
2021/12/01 06:25:00;;;;;;;1.83;1.50;;;9.70;99.90;;;;;;4996911;28;20440;-73
2021/12/01 06:27:27;;;;;;;3.87;1.50;;;9.70;99.90;;;;;;4996891;28;20437;-74
2021/12/01 06:29:55;;;;;;;4.43;1.37;;;9.70;99.90;;;;;;4996448;28;20973;-76
2021/12/01 06:32:22;;;;;;;1.70;1.10;;;9.80;99.90;;;;;;4996903;28;20433;-74
2021/12/01 06:34:49;;;;;;;1.17;1.07;;;9.70;99.90;;;;;;4996699;28;20453;-74
2021/12/01 06:37:18;;;;;;;2.13;1.10;;;9.80;99.90;;;;;;4996641;28;20449;-73
2021/12/01 06:39:45;;;;;;;1.27;1.03;;;9.90;99.90;;;;;;4996309;28;20491;-76
2021/12/01 06:42:12;;;;;;;3.20;1.27;;;9.90;99.90;;;;;;4996616;28;20480;-75
2021/12/01 06:44:39;;;;;;;3.10;1.20;;;9.90;99.90;;;;;;4996369;28;20946;-76
2021/12/01 06:47:06;;;;;;;1.10;0.80;;;9.90;99.90;;;;;;4996309;28;20433;-74
2021/12/01 06:49:33;;;;;;;2.53;0.83;;;9.90;99.90;;;;;;4996119;28;20462;-73
2021/12/01 06:52:00;;;;;;;1.30;0.73;;;9.90;99.90;;;;;;4996513;28;20441;-73
2021/12/01 06:54:28;;;;;;;2.07;1.57;;;9.90;99.90;;;;;;4996383;28;20471;-73
2021/12/01 06:56:55;;;;;;;1.13;1.03;;;9.90;99.90;;;;;;4996362;28;20452;-73
2021/12/01 06:59:21;;;;;;;1.90;1.00;;;9.90;99.90;;;;;;4996341;28;20452;-74
2021/12/01 07:01:48;;;;;;;0.93;0.90;;;9.90;99.90;;;;;;4996132;28;20526;-74
2021/12/01 07:04:15;;;;;;;0.67;0.63;;;9.90;99.90;;;;;;4995878;28;20463;-74
2021/12/01 07:06:42;;;;;;;0.83;0.70;;;9.90;99.90;;;;;;4996221;28;20521;-73
2021/12/01 07:09:11;;;;;;;1.63;0.60;;;9.90;99.90;;;;;;4995906;28;20450;-73
2021/12/01 07:11:39;;;;;;;1.27;1.17;;;9.90;99.90;;;;;;4995353;28;20495;-74
2021/12/01 07:14:06;;;;;;;0.50;0.50;;;9.90;99.90;;;;;;4996632;28;20456;-74
2021/12/01 07:16:33;;;;;;;0.60;0.60;;;9.90;99.90;;;;;;4995515;28;21105;-74
2021/12/01 07:19:00;;;;;;;1.63;0.63;;;9.90;99.90;;;;;;4995758;28;20452;-74
2021/12/01 07:21:26;;;;;;;0.50;0.40;;;9.90;99.90;;;;;;4995563;28;20488;-75
2021/12/01 07:23:53;;;;;;;0.63;0.40;;;9.90;99.90;;;;;;4995668;28;20452;-74
2021/12/01 07:26:20;;;;;;;1.73;0.73;;;9.90;99.90;;;;;;4995654;28;20452;-74
2021/12/01 07:28:49;;;;;;;1.10;0.60;;;9.90;99.90;;;;;;4995756;28;20449;-75
2021/12/01 07:31:17;;;;;;;0.50;0.50;;;10.00;99.90;;;;;;4995328;28;20994;-75
2021/12/01 07:33:44;;;;;;;0.53;0.53;;;10.00;99.90;;;;;;4995402;28;20977;-74
2021/12/01 07:36:11;;;;;;;0.70;0.40;;;10.00;99.90;;;;;;4995716;28;20824;-74
2021/12/01 07:38:37;;;;;;;0.43;0.43;;;10.00;99.90;;;;;;4995658;28;20448;-73
2021/12/01 07:41:04;;;;;;;2.20;0.50;;;10.00;99.90;;;;;;4995136;28;20469;-73
2021/12/01 07:43:31;;;;;;;1.43;0.50;;;10.00;99.90;;;;;;4995500;28;20810;-73
2021/12/01 07:46:01;;;;;;;0.83;0.40;;;10.00;99.90;;;;;;4995116;28;20821;-75
2021/12/01 07:48:27;;;;;;;0.40;0.30;;;10.00;99.90;;;;;;4995474;28;20475;-75
2021/12/01 07:50:55;;;;;;;0.43;0.40;;;10.00;99.90;;;;;;4995280;28;20543;-75
2021/12/01 07:53:22;;;;;;;0.40;0.30;;;10.00;99.90;;;;;;4994947;28;20449;-74
2021/12/01 07:55:49;;;;;;;0.40;0.37;;;10.00;99.90;;;;;;4995339;28;20451;-75
2021/12/01 07:58:16;;;;;;;0.40;0.40;;;10.00;99.90;;;;;;4995181;28;20460;-74
2021/12/01 08:00:43;;;;;;;0.50;0.50;;;10.00;99.90;;;;;;4995083;28;20479;-75
2021/12/01 08:03:11;;;;;;;0.90;0.50;;;10.00;99.90;;;;;;4994703;28;20491;-74
2021/12/01 08:05:38;;;;;;;0.80;0.70;;;9.90;99.90;;;;;;4994997;28;20444;-74
2021/12/01 08:08:06;;;;;;;0.40;0.30;;;10.00;99.90;;;;;;4994890;28;20444;-74
2021/12/01 08:10:33;;;;;;;0.60;0.50;;;10.00;99.90;;;;;;4994412;28;21020;-74
2021/12/01 08:13:00;;;;;;;0.60;0.30;;;10.00;99.90;;;;;;4994781;28;20448;-76
2021/12/01 08:15:27;;;;;;;0.70;0.50;;;10.00;99.90;;;;;;4994444;28;20462;-75
2021/12/01 08:17:55;;;;;;;1.67;0.40;;;10.00;99.90;;;;;;4994532;28;20437;-76
2021/12/01 08:20:23;;;;;;;0.50;0.47;;;10.00;99.90;;;;;;4994698;28;20476;-74
2021/12/01 08:22:50;;;;;;;1.13;0.40;;;9.90;99.90;;;;;;4993884;28;20484;-74
2021/12/01 08:25:17;;;;;;;0.53;0.30;;;10.00;99.90;;;;;;4994599;28;20429;-74
2021/12/01 08:27:44;;;;;;;0.60;0.50;;;10.00;99.90;;;;;;4994646;28;20440;-74
2021/12/01 08:30:11;;;;;;;0.40;0.37;;;10.00;99.90;;;;;;4994620;28;20469;-75
2021/12/01 08:32:38;;;;;;;0.70;0.40;;;10.00;99.90;;;;;;4994600;28;20445;-75
2021/12/01 08:35:08;;;;;;;0.40;0.30;;;10.00;99.90;;;;;;4994462;28;20452;-75
2021/12/01 08:37:36;;;;;;;0.80;0.40;;;10.10;99.90;;;;;;4994872;28;20574;-74
2021/12/01 08:40:04;;;;;;;0.57;0.50;;;10.10;99.90;;;;;;4994082;28;20834;-74
2021/12/01 08:42:31;;;;;;;1.57;0.57;;;10.00;99.90;;;;;;4994126;28;20488;-73
2021/12/01 08:44:58;;;;;;;0.40;0.40;;;10.10;99.90;;;;;;4994205;28;20452;-73
2021/12/01 08:47:25;;;;;;;0.50;0.50;;;10.00;99.90;;;;;;4994267;28;20452;-73
2021/12/01 08:49:53;;;;;;;0.87;0.30;;;10.00;99.90;;;;;;4993833;28;20476;-73
2021/12/01 08:52:20;;;;;;;3.60;0.77;;;10.00;99.90;;;;;;4993903;28;20934;-73
2021/12/01 08:54:48;;;;;;;1.47;0.47;;;10.00;99.90;;;;;;4994093;28;20826;-73
2021/12/01 08:57:15;;;;;;;0.70;0.40;;;10.00;99.90;;;;;;4994016;28;20467;-73
2021/12/01 08:59:44;;;;;;;0.67;0.50;;;10.00;99.90;;;;;;4993637;28;20451;-74
2021/12/01 09:02:11;;;;;;;0.60;0.47;;;10.00;99.90;;;;;;4993916;28;20496;-73
2021/12/01 09:04:38;;;;;;;3.90;0.43;;;10.00;99.90;;;;;;4993724;28;20803;-72
2021/12/01 09:07:05;;;;;;;1.13;0.40;;;10.00;99.90;;;;;;4993918;28;20785;-73
2021/12/01 09:09:32;;;;;;;0.60;0.53;;;10.00;99.90;;;;;;4993846;28;20452;-73
2021/12/01 09:12:00;;;;;;;1.67;0.43;;;10.00;99.90;;;;;;4993879;28;20445;-74
2021/12/01 09:14:27;;;;;;;0.80;0.43;;;10.00;99.90;;;;;;4993963;28;20531;-74
2021/12/01 09:16:56;;;;;;;0.60;0.30;;;10.00;99.90;;;;;;4993909;28;20448;-73
2021/12/01 09:19:23;;;;;;;1.70;0.60;;;10.00;99.90;;;;;;4993822;28;20494;-73
2021/12/01 09:21:51;;;;;;;0.40;0.40;;;10.00;99.90;;;;;;4993580;28;20448;-74
2021/12/01 09:24:20;;;;;;;0.30;0.30;;;10.00;99.90;;;;;;4993682;28;20433;-74
2021/12/01 09:26:48;;;;;;;0.40;0.30;;;10.00;99.90;;;;;;4993904;28;20948;-74
2021/12/01 09:29:16;;;;;;;0.40;0.30;;;10.00;99.90;;;;;;4993542;28;20467;-73
2021/12/01 09:31:43;;;;;;;1.70;0.30;;;10.10;99.90;;;;;;4993835;28;20480;-74
2021/12/01 09:34:10;;;;;;;0.57;0.47;;;10.10;99.90;;;;;;4996761;28;20464;-74
2021/12/01 09:36:37;;;;;;;0.93;0.30;;;10.10;99.90;;;;;;4997825;28;20452;-75
2021/12/01 09:39:05;;;;;;;1.33;0.70;;;10.20;99.90;;;;;;4997777;28;20492;-75
2021/12/01 09:41:32;;;;;;;0.60;0.50;;;10.10;99.90;;;;;;4997756;28;20468;-74
2021/12/01 09:43:58;;;;;;;1.33;0.30;;;10.20;99.90;;;;;;4997641;28;20487;-75
2021/12/01 09:46:30;;;;;;;0.60;0.30;;;10.30;99.90;;;;;;4997603;28;20456;-75
2021/12/01 09:48:57;;;;;;;0.67;0.40;;;10.30;99.90;;;;;;4997657;28;20432;-74
2021/12/01 09:51:24;;;;;;;0.40;0.40;;;10.30;99.90;;;;;;4997156;28;20997;-75
2021/12/01 09:53:53;;;;;;;0.40;0.30;;;10.30;99.90;;;;;;4997510;28;20861;-76
2021/12/01 09:56:21;;;;;;;0.30;0.30;;;10.40;99.90;;;;;;4997542;28;20441;-75
2021/12/01 09:58:48;;;;;;;0.40;0.40;;;10.40;99.90;;;;;;4997326;28;20452;-73
2021/12/01 10:01:17;;;;;;;1.27;0.30;;;10.40;99.90;;;;;;4997302;28;20467;-75
2021/12/01 10:03:46;;;;;;;0.70;0.40;;;10.40;99.90;;;;;;4996916;28;20488;-74
2021/12/01 10:06:14;;;;;;;1.43;0.30;;;10.30;99.90;;;;;;4997290;28;20451;-74
2021/12/01 10:08:44;;;;;;;0.40;0.40;;;10.30;99.90;;;;;;4997235;28;20453;-75
2021/12/01 10:11:13;;;;;;;1.70;0.30;;;10.30;99.90;;;;;;4996796;28;20488;-74
2021/12/01 10:13:43;;;;;;;0.37;0.37;;;10.20;99.90;;;;;;4997445;28;20452;-76
2021/12/01 10:16:12;;;;;;;0.37;0.37;;;10.20;99.90;;;;;;4997112;28;20433;-74
2021/12/01 10:18:42;;;;;;;0.50;0.30;;;10.30;99.90;;;;;;4997006;28;20452;-75
2021/12/01 10:21:14;;;;;;;0.90;0.50;;;10.30;99.90;;;;;;4996971;28;20475;-76
2021/12/01 10:23:44;;;;;;;0.50;0.30;;;10.30;99.90;;;;;;4996893;28;20475;-73
2021/12/01 10:26:14;;;;;;;1.60;0.43;;;10.30;99.90;;;;;;4996923;28;20441;-73
2021/12/01 10:28:43;;;;;;;0.50;0.40;;;10.30;99.90;;;;;;4996933;28;20439;-73
2021/12/01 10:31:12;;;;;;;1.13;0.50;;;10.40;99.90;;;;;;4996369;28;20475;-74
2021/12/01 10:33:40;;;;;;;0.40;0.33;;;10.50;99.90;;;;;;4996602;28;20823;-75
2021/12/01 10:36:09;;;;;;;0.60;0.50;;;10.60;99.90;;;;;;4996783;28;20444;-74
2021/12/01 10:38:40;;;;;;;0.50;0.50;;;10.60;99.90;;;;;;4996666;28;20883;-75
2021/12/01 10:41:09;;;;;;;0.40;0.30;;;10.60;99.90;;;;;;4996521;28;20478;-75
2021/12/01 10:43:39;;;;;;;0.73;0.40;;;10.60;99.90;;;;;;4996528;28;20523;-75
2021/12/01 10:46:07;;;;;;;0.53;0.40;;;10.60;99.90;;;;;;4995695;28;20817;-74
2021/12/01 10:48:34;;;;;;;0.83;0.47;;;10.60;99.90;;;;;;4996078;28;21009;-73
2021/12/01 10:51:01;;;;;;;0.40;0.30;;;10.70;99.90;;;;;;4996401;28;20568;-74
2021/12/01 10:53:29;;;;;;;0.40;0.40;;;10.70;99.90;;;;;;4996579;28;20452;-76
2021/12/01 10:56:00;;;;;;;0.40;0.37;;;10.60;99.90;;;;;;4996518;28;20463;-76
2021/12/01 10:58:35;;;;;;;0.70;0.50;;;10.60;99.90;;;;;;4996139;28;20821;-75
2021/12/01 11:01:04;;;;;;;0.70;0.63;;;10.70;99.90;;;;;;4996032;28;21017;-76
2021/12/01 11:03:32;;;;;;;1.07;0.50;;;10.80;99.90;;;;;;4996091;28;20491;-75
2021/12/01 11:06:10;;;;;;;2.90;0.63;;;10.90;99.90;;;;;;4996041;28;20448;-76
2021/12/01 11:08:39;;;;;;;1.23;0.40;;;10.90;99.90;;;;;;4996403;28;20432;-76
2021/12/01 11:11:10;;;;;;;0.50;0.40;;;10.90;99.90;;;;;;4995788;28;20480;-76
2021/12/01 11:13:39;;;;;;;1.03;0.67;;;10.90;99.90;;;;;;4996206;28;20806;-76
2021/12/01 11:16:08;;;;;;;1.33;0.70;;;10.90;99.90;;;;;;4996179;28;20523;-76
2021/12/01 11:18:36;;;;;;;0.60;0.60;;;10.90;99.90;;;;;;4996115;28;20444;-76
2021/12/01 11:21:07;;;;;;;0.93;0.93;;;11.10;99.90;;;;;;4995934;28;20477;-76
2021/12/01 11:23:35;;;;;;;0.80;0.80;;;11.00;99.90;;;;;;4995955;28;20504;-75
2021/12/01 11:26:05;;;;;;;1.90;0.70;;;11.00;99.90;;;;;;4995944;28;20448;-76
2021/12/01 11:28:36;;;;;;;0.80;0.70;;;11.00;99.90;;;;;;4995679;28;20531;-76
2021/12/01 11:31:05;;;;;;;4.20;1.27;;;11.00;99.90;;;;;;4995532;28;20974;-75
2021/12/01 11:33:33;;;;;;;1.43;0.60;;;10.90;99.90;;;;;;4995897;28;20460;-75
2021/12/01 11:36:01;;;;;;;1.67;0.80;;;10.80;99.90;;;;;;4995656;28;20441;-74
2021/12/01 11:38:28;;;;;;;3.10;0.60;;;10.70;99.90;;;;;;4995610;28;20456;-74
2021/12/01 11:40:56;;;;;;;0.90;0.67;;;10.60;99.90;;;;;;4995606;28;20472;-75
2021/12/01 11:43:25;;;;;;;2.53;0.70;;;10.50;99.90;;;;;;4995584;28;20492;-75
2021/12/01 11:45:53;;;;;;;0.70;0.70;;;10.40;99.90;;;;;;4995362;28;20455;-74
2021/12/01 11:48:25;;;;;;;1.33;0.70;;;10.40;99.90;;;;;;4995880;28;20544;-73
2021/12/01 11:51:00;;;;;;;0.83;0.83;;;10.40;99.90;;;;;;4995394;28;20468;-73
2021/12/01 11:53:33;;;;;;;1.50;1.20;;;10.30;99.90;;;;;;4995415;28;20428;-73
2021/12/01 11:56:02;;;;;;;1.67;1.57;;;10.20;99.90;;;;;;4995059;28;20505;-73
2021/12/01 11:58:53;;;;;;;2.77;2.37;;;10.10;99.90;;;;;;4995216;28;20452;-73
2021/12/01 12:01:57;;;;;;;3.43;2.67;;;10.10;99.90;;;;;;4995065;28;20472;-73
2021/12/01 12:04:46;;;;;;;2.60;2.40;;;10.00;99.90;;;;;;4995213;28;20475;-73
2021/12/01 12:07:16;;;;;;;4.70;2.80;;;9.90;99.90;;;;;;4995102;28;20454;-73
2021/12/01 12:10:02;;;;;;;3.33;2.70;;;9.90;99.90;;;;;;4994872;28;20460;-73
2021/12/01 12:12:59;;;;;;;2.87;1.67;;;9.90;99.90;;;;;;4995035;28;20444;-74
2021/12/01 12:15:42;;;;;;;2.60;1.50;;;9.90;99.90;;;;;;4992663;28;20559;-73
2021/12/01 12:18:11;;;;;;;4.63;1.60;;;9.80;99.90;;;;;;4993317;28;20491;-73
2021/12/01 12:20:49;;;;;;;4.63;2.00;;;9.80;99.90;;;;;;4994477;28;20982;-74
2021/12/01 12:23:17;;;;;;;5.07;2.87;;;9.60;99.90;;;;;;4994700;28;20468;-73
2021/12/01 12:25:53;;;;;;;2.90;2.00;;;9.50;99.90;;;;;;4994798;28;20444;-73
2021/12/01 12:28:27;;;;;;;4.53;2.10;;;9.60;99.90;;;;;;4994761;28;20440;-73
2021/12/01 12:30:54;;;;;;;3.10;1.93;;;9.60;99.90;;;;;;4994663;28;20468;-74
2021/12/01 12:33:24;;;;;;;3.43;1.80;;;9.60;99.90;;;;;;4994611;28;20448;-74
2021/12/01 12:35:55;;;;;;;5.20;1.97;;;9.60;99.90;;;;;;4994389;28;20428;-74
2021/12/01 12:38:22;;;;;;;8.70;1.70;;;9.70;99.90;;;;;;4994523;28;20440;-74
2021/12/01 12:41:01;;;;;;;3.60;1.60;;;9.80;99.90;;;;;;4994459;28;20468;-74
2021/12/01 12:43:29;;;;;;;10.70;1.87;;;9.80;99.90;;;;;;4994444;28;20512;-74
2021/12/01 12:46:05;;;;;;;7.73;2.77;;;9.80;99.90;;;;;;4994059;28;20485;-74
2021/12/01 12:48:35;;;;;;;2.70;1.90;;;9.80;99.90;;;;;;4995043;28;20446;-74
2021/12/01 12:51:15;;;;;;;3.13;1.97;;;9.70;99.90;;;;;;4994285;28;20970;-74
2021/12/01 12:54:15;;;;;;;5.63;2.50;;;9.80;99.90;;;;;;4994032;28;20435;-74
2021/12/01 12:56:46;;;;;;;5.13;1.83;;;9.80;99.90;;;;;;4993972;28;20448;-74
2021/12/01 12:59:31;;;;;;;3.17;2.37;;;9.80;99.90;;;;;;4994088;28;20439;-74
2021/12/01 13:02:30;;;;;;;3.90;1.77;;;9.90;99.90;;;;;;4994056;28;20914;-74
2021/12/01 13:05:01;;;;;;;5.87;2.00;;;9.90;99.90;;;;;;4994501;28;20479;-73